Time;durP1;ratioP1;P1;durP2;ratioP2;P2;SDS_P1;SDS_P2;PMS_P1;PMS_P2;Temp;Humidity;BMP_temperature;BMP_pressure;BME280_temperature;BME280_humidity;BME280_pressure;Samples;Min_cycle;Max_cycle;Signal;HPM_P1;HPM_P2
2021/06/07 00:00:15;;;;;;;36.10;21.67;;;;;;;18.46;64.68;97777.69;5015631;28;20044;-79
2021/06/07 00:02:41;;;;;;;33.90;20.17;;;;;;;18.50;64.74;97773.41;5030485;28;20445;-79
2021/06/07 00:05:07;;;;;;;35.25;21.63;;;;;;;18.50;64.83;97781.31;4999092;28;20032;-79
2021/06/07 00:07:32;;;;;;;37.05;23.30;;;;;;;18.46;65.00;97779.56;5011684;28;20047;-78
2021/06/07 00:09:57;;;;;;;37.83;22.38;;;;;;;18.48;64.93;97782.69;5030551;28;20469;-79
2021/06/07 00:12:23;;;;;;;32.75;21.25;;;;;;;18.50;64.57;97775.28;5033458;28;20037;-79
2021/06/07 00:14:49;;;;;;;34.13;22.00;;;;;;;18.52;64.64;97786.31;5031340;28;20563;-79
2021/06/07 00:17:14;;;;;;;35.00;21.83;;;;;;;18.55;64.66;97782.34;5033959;28;20036;-79
2021/06/07 00:19:41;;;;;;;37.72;21.65;;;;;;;18.46;64.47;97779.56;5009514;28;20056;-79
2021/06/07 00:22:08;;;;;;;33.13;20.95;;;;;;;18.49;64.63;97782.41;5021473;28;20034;-79
2021/06/07 00:24:34;;;;;;;34.78;21.30;;;;;;;18.44;64.94;97782.47;5032223;28;20052;-79
2021/06/07 00:26:59;;;;;;;35.13;22.05;;;;;;;18.48;64.67;97783.47;5027860;28;20109;-79
2021/06/07 00:29:25;;;;;;;32.35;21.85;;;;;;;18.48;64.82;97785.31;5033602;28;20103;-79
2021/06/07 00:31:50;;;;;;;34.80;22.83;;;;;;;18.46;64.35;97777.69;5030837;28;20441;-79
2021/06/07 00:34:16;;;;;;;37.05;22.08;;;;;;;18.51;64.51;97784.75;5028962;28;20416;-79
2021/06/07 00:36:42;;;;;;;35.70;22.38;;;;;;;18.50;64.25;97781.31;5048048;28;20492;-79
2021/06/07 00:39:10;;;;;;;37.47;22.33;;;;;;;18.43;64.46;97778.25;5033632;28;20067;-79
2021/06/07 00:41:36;;;;;;;35.78;21.77;;;;;;;18.48;64.34;97783.47;5032486;28;20029;-79
2021/06/07 00:44:07;;;;;;;39.97;22.88;;;;;;;18.36;64.47;97783.06;5033507;28;20104;-79
2021/06/07 00:46:32;;;;;;;36.83;22.35;;;;;;;18.38;65.06;97769.63;5032122;28;20079;-79
2021/06/07 00:48:58;;;;;;;37.88;22.90;;;;;;;18.38;65.10;97775.66;5049101;28;20495;-79
2021/06/07 00:51:23;;;;;;;35.90;21.85;;;;;;;18.41;64.71;97776.97;5032459;28;20447;-78
2021/06/07 00:53:49;;;;;;;37.05;22.15;;;;;;;18.43;64.68;97772.97;4988876;28;20068;-79
2021/06/07 00:56:14;;;;;;;35.30;22.33;;;;;;;18.53;64.38;97770.22;5033693;28;20029;-79
2021/06/07 00:58:44;;;;;;;36.13;22.40;;;;;;;18.47;64.39;97771.38;5029783;28;20022;-79
2021/06/07 01:01:11;;;;;;;36.38;21.90;;;;;;;18.39;64.85;97764.06;4998211;28;20472;-80
2021/06/07 01:03:37;;;;;;;37.38;21.90;;;;;;;18.40;64.98;97773.53;5047620;22;20011;-77
2021/06/07 01:06:04;;;;;;;34.53;21.05;;;;;;;18.47;64.57;97778.47;5069281;28;20817;-77
2021/06/07 01:08:29;;;;;;;36.63;22.48;;;;;;;18.51;64.46;97775.00;5044346;28;20593;-76
2021/06/07 01:10:55;;;;;;;36.28;22.33;;;;;;;18.46;64.66;97769.78;5053397;28;20032;-77
2021/06/07 01:13:22;;;;;;;35.05;23.27;;;;;;;18.29;65.09;97761.53;5052753;28;20510;-77
2021/06/07 01:15:50;;;;;;;40.42;23.83;;;;;;;18.36;65.06;97772.53;5033230;28;20479;-77
2021/06/07 01:18:23;;;;;;;38.08;23.80;;;;;;;18.30;64.88;97773.63;5036459;28;20390;-77
2021/06/07 01:20:51;;;;;;;40.10;24.30;;;;;;;18.17;65.17;97769.81;5053521;28;20024;-77
2021/06/07 01:23:17;;;;;;;40.50;23.48;;;;;;;18.31;65.19;97764.66;5036625;28;20470;-77
2021/06/07 01:25:44;;;;;;;36.72;21.67;;;;;;;18.35;64.91;97768.31;5052739;28;20162;-77
2021/06/07 01:28:14;;;;;;;39.92;22.48;;;;;;;18.30;64.79;97768.34;5053243;28;20042;-77
2021/06/07 01:30:42;;;;;;;39.20;24.42;;;;;;;18.35;65.03;97770.94;5020236;28;20063;-77
2021/06/07 01:33:11;;;;;;;38.85;23.90;;;;;;;18.26;64.89;97762.88;5051497;28;20113;-77
2021/06/07 01:35:37;;;;;;;42.67;24.52;;;;;;;18.35;65.12;97757.75;5029858;28;20040;-77
2021/06/07 01:38:04;;;;;;;37.78;23.20;;;;;;;18.26;65.35;97757.59;5019835;28;20033;-77
2021/06/07 01:40:35;;;;;;;37.35;23.13;;;;;;;18.35;64.80;97760.41;5052736;28;20043;-77
2021/06/07 01:43:01;;;;;;;40.78;24.38;;;;;;;18.34;65.25;97750.94;4995168;28;20132;-76
2021/06/07 01:45:28;;;;;;;40.30;23.50;;;;;;;18.20;65.41;97752.66;5052721;28;20111;-76
2021/06/07 01:47:59;;;;;;;40.03;23.45;;;;;;;18.20;65.45;97753.44;5036905;28;20043;-76
2021/06/07 01:50:27;;;;;;;38.70;23.52;;;;;;;18.34;65.17;98465.44;5035986;28;20119;-77
2021/06/07 01:52:53;;;;;;;38.67;23.63;;;;;;;18.30;65.29;97753.34;5052350;28;20016;-77
2021/06/07 01:55:21;;;;;;;41.35;24.65;;;;;;;18.10;65.86;97741.16;5019284;28;20698;-77
2021/06/07 01:57:49;;;;;;;36.50;22.73;;;;;;;18.22;65.38;97745.28;5019443;28;20125;-76
2021/06/07 02:00:23;;;;;;;38.47;23.80;;;;;;;18.03;65.92;97740.72;5052794;28;20028;-77
2021/06/07 02:02:49;;;;;;;35.75;21.10;;;;;;;18.30;65.05;97749.91;5066667;28;20029;-77
2021/06/07 02:05:23;;;;;;;38.33;24.10;;;;;;;18.18;65.50;97736.34;5037132;28;20043;-77
2021/06/07 02:07:53;;;;;;;43.80;25.37;;;;;;;18.08;65.91;97745.94;5030759;28;20032;-77
2021/06/07 02:10:21;;;;;;;37.83;23.15;;;;;;;18.26;65.53;97739.13;5052406;28;20738;-76
2021/06/07 02:12:47;;;;;;;40.95;24.73;;;;;;;18.22;65.84;97737.38;5041900;28;20032;-76
2021/06/07 02:15:13;;;;;;;43.53;25.27;;;;;;;18.14;65.89;97730.84;5035399;28;20040;-77
2021/06/07 02:17:39;;;;;;;40.20;23.92;;;;;;;18.23;65.33;97731.81;5051998;28;20024;-77
2021/06/07 02:20:07;;;;;;;43.65;26.42;;;;;;;18.07;66.09;97733.81;5045297;28;20392;-77
2021/06/07 02:22:37;;;;;;;41.22;22.63;;;;;;;18.18;65.79;97728.44;5051925;28;20016;-77
2021/06/07 02:25:03;;;;;;;38.80;23.77;;;;;;;18.20;66.13;97727.09;5029623;28;20380;-77
2021/06/07 02:27:29;;;;;;;39.08;23.85;;;;;;;18.31;65.44;97733.03;5035339;28;20566;-76
2021/06/07 02:29:54;;;;;;;39.85;24.63;;;;;;;18.18;66.01;97733.69;5035224;28;20111;-76
2021/06/07 02:32:20;;;;;;;37.65;23.98;;;;;;;18.16;65.55;97720.78;5033894;28;20025;-76
2021/06/07 02:34:45;;;;;;;41.38;25.30;;;;;;;18.23;65.69;97731.81;5067028;28;20040;-77
2021/06/07 02:37:11;;;;;;;42.78;25.75;;;;;;;18.26;65.56;97741.78;5035247;28;20036;-76
2021/06/07 02:39:36;;;;;;;41.08;25.85;;;;;;;18.22;65.79;97730.22;5034673;28;20044;-76
2021/06/07 02:42:02;;;;;;;38.45;24.25;;;;;;;18.21;65.46;97735.78;5023497;28;20024;-76
2021/06/07 02:44:28;;;;;;;42.75;25.00;;;;;;;18.24;65.78;97733.38;5033814;28;20024;-76
2021/06/07 02:46:53;;;;;;;44.50;26.13;;;;;;;18.17;66.17;97730.28;5047269;28;20085;-77
2021/06/07 02:49:18;;;;;;;41.58;25.60;;;;;;;18.19;66.06;97732.66;5049683;28;20037;-77
2021/06/07 02:51:44;;;;;;;46.78;25.50;;;;;;;18.10;66.36;97740.38;5032731;28;20107;-77
2021/06/07 02:54:10;;;;;;;44.95;25.02;;;;;;;18.18;65.97;97741.59;5031910;28;20450;-77
2021/06/07 02:56:35;;;;;;;46.28;26.35;;;;;;;18.13;66.02;97732.69;5016260;28;20020;-76
2021/06/07 02:59:02;;;;;;;41.40;25.02;;;;;;;18.23;65.74;97737.09;5051629;28;20063;-77
2021/06/07 03:01:27;;;;;;;40.70;25.77;;;;;;;18.13;66.12;97732.69;5015128;28;20028;-77
2021/06/07 03:03:52;;;;;;;44.58;27.38;;;;;;;18.15;66.08;97730.56;5045672;28;20047;-77
2021/06/07 03:06:18;;;;;;;40.78;25.13;;;;;;;18.17;66.14;97732.91;5029116;28;20045;-77
2021/06/07 03:08:43;;;;;;;44.58;26.33;;;;;;;17.93;66.68;97738.94;5035219;28;20039;-77
2021/06/07 03:11:10;;;;;;;46.05;26.92;;;;;;;17.97;66.69;97733.91;5051499;28;20086;-76
2021/06/07 03:13:37;;;;;;;48.47;27.73;;;;;;;18.12;66.45;97736.38;5034635;28;20819;-77
2021/06/07 03:16:03;;;;;;;43.90;26.48;;;;;;;18.08;66.22;97730.13;5051322;28;20036;-77
2021/06/07 03:18:29;;;;;;;42.83;26.15;;;;;;;18.15;66.18;97740.31;5035016;28;20063;-77
2021/06/07 03:20:55;;;;;;;44.10;27.05;;;;;;;18.06;66.59;97739.34;5051387;28;20060;-77
2021/06/07 03:23:27;;;;;;;45.47;26.98;;;;;;;17.89;66.92;97742.41;5034495;28;20472;-77
2021/06/07 03:25:54;;;;;;;45.25;26.90;;;;;;;18.06;66.55;97739.34;5034825;28;20043;-77
2021/06/07 03:28:20;;;;;;;44.33;26.95;;;;;;;18.04;66.59;97734.34;5051384;28;20109;-77
2021/06/07 03:30:46;;;;;;;42.60;25.42;;;;;;;18.10;66.26;97727.19;5051026;28;20029;-76
2021/06/07 03:33:12;;;;;;;43.60;27.80;;;;;;;18.06;66.33;97726.97;5021216;28;20025;-77
2021/06/07 03:35:40;;;;;;;44.22;27.45;;;;;;;18.09;66.06;97722.97;5032354;28;20036;-77
2021/06/07 03:38:06;;;;;;;45.17;27.45;;;;;;;18.15;65.91;97727.94;5034527;28;20039;-77
2021/06/07 03:40:34;;;;;;;44.85;26.02;;;;;;;18.19;65.86;97740.56;5018431;28;20522;-76
2021/06/07 03:43:01;;;;;;;42.08;27.60;;;;;;;18.19;66.01;97730.78;5028589;28;20360;-77
2021/06/07 03:45:27;;;;;;;44.05;26.58;;;;;;;18.26;65.82;97738.38;5051150;28;20103;-77
2021/06/07 03:47:55;;;;;;;46.85;29.05;;;;;;;18.21;66.07;97731.28;5038934;28;20550;-77
2021/06/07 03:50:24;;;;;;;43.40;26.13;;;;;;;18.12;66.18;97725.84;5033859;28;20104;-77
2021/06/07 03:52:50;;;;;;;47.22;27.42;;;;;;;18.22;65.99;97738.13;5054727;28;20554;-77
2021/06/07 03:55:17;;;;;;;41.63;25.73;;;;;;;18.22;66.10;97738.13;5037811;28;20037;-76
2021/06/07 03:57:43;;;;;;;44.40;26.73;;;;;;;18.25;65.97;97734.16;5038170;28;20078;-76
2021/06/07 04:00:11;;;;;;;41.45;26.55;;;;;;;18.23;65.88;97733.66;5038524;28;20068;-77
2021/06/07 04:02:36;;;;;;;38.88;25.73;;;;;;;18.17;66.17;97727.66;5035791;28;20033;-77
2021/06/07 04:05:03;;;;;;;44.95;27.00;;;;;;;18.19;66.13;97728.16;5041959;28;20033;-76
2021/06/07 04:07:28;;;;;;;43.78;26.80;;;;;;;18.30;65.74;97734.09;5026975;28;20028;-76
2021/06/07 04:09:55;;;;;;;39.90;26.27;;;;;;;18.22;66.12;97730.22;5053156;28;20082;-77
2021/06/07 04:12:20;;;;;;;40.67;26.17;;;;;;;18.24;66.02;97729.97;5032816;28;20016;-77
2021/06/07 04:14:46;;;;;;;41.08;24.77;;;;;;;18.15;66.29;97724.50;5037539;28;20059;-76
2021/06/07 04:17:11;;;;;;;41.45;25.23;;;;;;;18.21;66.36;97727.88;5037885;28;20143;-77
2021/06/07 04:19:36;;;;;;;37.75;25.20;;;;;;;18.23;66.15;97734.44;5037655;28;20038;-76
2021/06/07 04:22:03;;;;;;;42.22;25.58;;;;;;;18.24;66.40;97743.13;5051157;28;20063;-76
2021/06/07 04:24:28;;;;;;;40.97;26.83;;;;;;;18.11;66.53;97729.56;5014532;28;20108;-77
2021/06/07 04:26:54;;;;;;;40.35;25.40;;;;;;;18.23;66.35;97733.66;5037686;28;20147;-77
2021/06/07 04:29:19;;;;;;;40.35;25.80;;;;;;;18.26;66.38;97733.09;5037515;28;20035;-76
2021/06/07 04:31:45;;;;;;;38.70;25.17;;;;;;;18.32;65.98;97740.66;5048180;28;20036;-77
2021/06/07 04:34:13;;;;;;;39.88;23.63;;;;;;;18.24;66.03;97733.38;5035106;28;20115;-76
2021/06/07 04:36:38;;;;;;;37.13;24.17;;;;;;;18.38;65.91;97745.88;5053918;28;20029;-77
2021/06/07 04:39:05;;;;;;;38.70;24.80;;;;;;;18.29;65.90;97735.16;5066859;28;20041;-77
2021/06/07 04:41:31;;;;;;;37.95;24.90;;;;;;;18.36;65.69;97737.47;5020797;28;20028;-77
2021/06/07 04:43:56;;;;;;;36.63;22.67;;;;;;;18.36;65.98;97743.53;5036939;28;20036;-77
2021/06/07 04:46:22;;;;;;;38.95;24.38;;;;;;;18.36;65.79;97740.88;5037243;28;20035;-77
2021/06/07 04:48:47;;;;;;;34.10;22.30;;;;;;;18.29;66.15;97741.22;5037114;28;20470;-76
2021/06/07 04:51:13;;;;;;;36.47;24.33;;;;;;;18.17;66.42;97732.91;5037645;28;20038;-77
2021/06/07 04:53:38;;;;;;;39.35;23.52;;;;;;;18.29;66.27;97740.44;5029909;28;20431;-76
2021/06/07 04:56:04;;;;;;;36.55;25.05;;;;;;;18.24;66.38;97733.38;5036848;28;20179;-77
2021/06/07 04:58:30;;;;;;;43.00;24.83;;;;;;;18.22;66.65;97747.91;5037056;28;20036;-77
2021/06/07 05:01:01;;;;;;;41.58;24.95;;;;;;;18.11;66.74;97745.38;5012271;28;20040;-77
2021/06/07 05:03:27;;;;;;;41.00;23.63;;;;;;;18.13;66.73;97750.38;5015813;28;20034;-76
2021/06/07 05:05:53;;;;;;;36.58;23.42;;;;;;;18.18;66.73;97733.69;5046646;28;20482;-77
2021/06/07 05:08:19;;;;;;;38.22;23.75;;;;;;;18.33;66.25;97738.81;5052543;28;20037;-76
2021/06/07 05:10:44;;;;;;;38.53;23.88;;;;;;;18.34;66.13;97737.75;5017634;28;20127;-77
2021/06/07 05:13:10;;;;;;;38.17;21.77;;;;;;;18.31;66.33;97746.22;5034410;28;20040;-77
2021/06/07 05:15:35;;;;;;;34.90;21.85;;;;;;;18.37;66.04;97739.84;5019695;28;20047;-77
2021/06/07 05:18:01;;;;;;;34.35;22.40;;;;;;;18.48;66.07;97741.28;5019060;28;20479;-77
2021/06/07 05:20:27;;;;;;;32.65;21.15;;;;;;;18.49;65.83;97739.41;5052330;28;20036;-76
2021/06/07 05:22:54;;;;;;;33.28;22.02;;;;;;;18.34;66.35;97735.13;5018994;28;20051;-77
2021/06/07 05:25:21;;;;;;;31.90;21.00;;;;;;;18.28;66.28;97736.22;5036262;28;20032;-77
2021/06/07 05:27:47;;;;;;;30.90;20.00;;;;;;;18.45;65.85;97733.91;5036488;28;20029;-77
2021/06/07 05:30:13;;;;;;;32.15;19.90;;;;;;;18.49;65.99;97742.84;5018276;28;20078;-77
2021/06/07 05:32:39;;;;;;;33.10;20.75;;;;;;;18.59;65.78;97734.00;5068359;28;20552;-77
2021/06/07 05:35:07;;;;;;;28.05;19.45;;;;;;;18.52;66.00;97741.50;5050522;28;20037;-77
2021/06/07 05:37:35;;;;;;;28.75;19.33;;;;;;;18.61;65.63;97742.44;5020280;28;20036;-77
2021/06/07 05:40:00;;;;;;;24.90;18.10;;;;;;;18.71;65.48;97744.97;5052605;28;20041;-76
2021/06/07 05:42:25;;;;;;;25.58;17.77;;;;;;;18.67;65.08;97751.09;5047550;28;20074;-77
2021/06/07 05:44:51;;;;;;;27.80;18.23;;;;;;;18.51;65.89;97745.22;5035826;28;20024;-77
2021/06/07 05:47:16;;;;;;;26.40;17.95;;;;;;;18.62;65.52;97751.16;5034692;28;20032;-77
2021/06/07 05:49:42;;;;;;;25.40;17.02;;;;;;;18.67;65.23;97745.81;5043536;28;20032;-77
2021/06/07 05:52:08;;;;;;;24.90;17.25;;;;;;;18.61;65.50;97750.38;5029001;28;20528;-77
2021/06/07 05:54:35;;;;;;;24.52;17.17;;;;;;;18.55;65.45;97748.84;5035789;28;20048;-77
2021/06/07 05:57:00;;;;;;;23.90;16.00;;;;;;;18.70;65.17;97751.31;5029621;28;20032;-77
2021/06/07 05:59:26;;;;;;;23.80;16.15;;;;;;;18.71;64.57;97747.59;5035967;28;20428;-77
2021/06/07 06:01:52;;;;;;;25.30;17.67;;;;;;;18.63;65.30;97756.13;5046041;28;20032;-77
2021/06/07 06:04:17;;;;;;;22.75;15.93;;;;;;;18.88;64.91;97751.63;5030308;28;20044;-77
2021/06/07 06:06:43;;;;;;;24.08;16.05;;;;;;;18.75;65.30;97749.66;5004029;28;20029;-77
2021/06/07 06:09:08;;;;;;;21.90;14.85;;;;;;;18.77;65.34;97753.59;5030295;28;20032;-78
2021/06/07 06:11:34;;;;;;;22.05;16.30;;;;;;;18.62;65.57;97756.41;5027340;28;20040;-77
2021/06/07 06:14:01;;;;;;;23.08;14.98;;;;;;;18.68;65.12;97750.03;5042834;28;20414;-77
2021/06/07 06:16:26;;;;;;;24.73;16.08;;;;;;;18.65;65.14;97755.84;5050988;28;20089;-77
2021/06/07 06:18:51;;;;;;;21.73;14.70;;;;;;;18.77;65.16;97760.72;5017820;28;20766;-76
2021/06/07 06:21:17;;;;;;;22.25;15.68;;;;;;;18.67;64.93;97740.53;5017481;28;20346;-76
2021/06/07 06:23:42;;;;;;;22.38;15.30;;;;;;;18.82;65.05;97758.03;5033784;28;20036;-77
2021/06/07 06:26:09;;;;;;;21.80;14.48;;;;;;;18.68;64.94;97763.22;5045745;28;20182;-77
2021/06/07 06:28:36;;;;;;;19.85;13.73;;;;;;;18.40;65.65;97752.44;5035203;28;20029;-77
2021/06/07 06:31:06;;;;;;;20.40;13.43;;;;;;;18.52;65.14;97758.13;5030392;28;20117;-77
2021/06/07 06:33:33;;;;;;;20.00;14.52;;;;;;;18.61;65.45;97757.47;5017254;28;20466;-77
2021/06/07 06:35:59;;;;;;;21.08;14.32;;;;;;;18.68;65.09;97757.94;5048598;28;20037;-77
2021/06/07 06:38:25;;;;;;;19.70;12.88;;;;;;;18.63;65.31;97760.63;5013796;28;20341;-77
2021/06/07 06:40:52;;;;;;;17.58;13.80;;;;;;;18.81;64.93;97757.22;5023634;28;20062;-77
2021/06/07 06:43:19;;;;;;;19.00;13.15;;;;;;;19.04;64.72;97763.56;5029038;28;20477;-77
2021/06/07 06:45:44;;;;;;;19.00;12.52;;;;;;;19.08;63.71;97758.50;5033958;28;20501;-77
2021/06/07 06:48:10;;;;;;;17.45;11.85;;;;;;;19.07;63.67;97767.47;5034336;28;20036;-77
2021/06/07 06:50:39;;;;;;;16.13;12.18;;;;;;;18.79;64.68;97766.50;5029560;28;20029;-77
2021/06/07 06:53:07;;;;;;;15.93;12.32;;;;;;;19.21;63.46;97767.53;5033080;28;20055;-77
2021/06/07 06:55:33;;;;;;;16.73;12.13;;;;;;;18.99;63.93;97770.78;5017775;28;20060;-77
2021/06/07 06:57:58;;;;;;;14.75;10.77;;;;;;;19.03;63.80;97763.84;5033986;28;20440;-78
2021/06/07 07:00:24;;;;;;;15.52;11.23;;;;;;;19.28;63.10;97766.13;5050387;28;20143;-76
2021/06/07 07:02:50;;;;;;;15.25;11.27;;;;;;;19.35;63.30;97765.78;5027041;28;20075;-77
2021/06/07 07:05:16;;;;;;;16.60;11.10;;;;;;;19.31;62.97;97761.34;5044599;28;20087;-77
2021/06/07 07:07:42;;;;;;;14.60;11.15;;;;;;;19.41;62.94;97772.53;5017096;28;20020;-77
2021/06/07 07:10:08;;;;;;;14.40;10.23;;;;;;;19.40;62.44;97767.56;5034085;28;20029;-78
2021/06/07 07:12:34;;;;;;;13.02;9.45;;;;;;;19.06;63.44;97769.34;5027105;28;20132;-78
2021/06/07 07:14:59;;;;;;;11.85;9.35;;;;;;;19.04;63.61;97770.72;5008227;28;20590;-78
2021/06/07 07:17:25;;;;;;;14.65;9.88;;;;;;;19.04;64.02;97773.34;5034580;28;20035;-77
2021/06/07 07:19:51;;;;;;;10.05;8.25;;;;;;;18.97;63.68;97771.06;5051207;28;20038;-78
2021/06/07 07:22:17;;;;;;;11.75;8.80;;;;;;;19.04;63.41;97775.97;5027647;28;20033;-77
2021/06/07 07:24:44;;;;;;;11.98;9.50;;;;;;;18.98;63.74;97777.88;5035650;28;20113;-77
2021/06/07 07:27:16;;;;;;;12.52;8.93;;;;;;;18.71;64.21;97779.25;5049078;28;20487;-79
2021/06/07 07:29:42;;;;;;;10.88;7.65;;;;;;;18.77;64.35;97774.69;5032388;28;20036;-78
2021/06/07 07:32:09;;;;;;;10.98;8.10;;;;;;;19.01;63.71;97776.56;5048027;28;20388;-78
2021/06/07 07:34:34;;;;;;;9.35;7.32;;;;;;;19.14;63.34;97772.41;5017293;28;20102;-77
2021/06/07 07:37:01;;;;;;;8.90;7.30;;;;;;;19.33;63.17;97780.31;5037436;28;20060;-77
2021/06/07 07:39:27;;;;;;;9.77;6.80;;;;;;;19.50;62.82;97779.81;5013216;28;20423;-77
2021/06/07 07:41:53;;;;;;;9.80;7.75;;;;;;;19.40;62.31;97780.75;5036061;28;20025;-78
2021/06/07 07:44:19;;;;;;;8.07;6.45;;;;;;;19.67;61.78;97787.22;5055299;28;20039;-77
2021/06/07 07:46:45;;;;;;;7.68;6.07;;;;;;;19.01;63.21;97779.97;5039143;28;20232;-79
2021/06/07 07:49:11;;;;;;;7.10;5.97;;;;;;;19.23;63.24;97779.41;5038899;28;20028;-78
2021/06/07 07:51:36;;;;;;;10.35;6.55;;;;;;;19.43;62.16;97778.34;5038804;28;20351;-78
2021/06/07 07:54:02;;;;;;;9.32;6.10;;;;;;;19.56;62.26;97782.09;5030879;28;20121;-78
2021/06/07 07:56:27;;;;;;;6.72;6.03;;;;;;;19.52;62.15;97781.09;5008614;28;20115;-78
2021/06/07 07:58:53;;;;;;;8.95;6.75;;;;;;;19.47;62.45;97786.47;5012562;28;20036;-78
2021/06/07 08:01:18;;;;;;;7.60;6.22;;;;;;;19.39;62.53;97787.09;5017867;28;20120;-78
2021/06/07 08:03:44;;;;;;;6.63;5.63;;;;;;;19.49;62.15;97794.88;5025033;28;20041;-79
2021/06/07 08:06:09;;;;;;;6.68;5.70;;;;;;;19.53;62.09;97795.09;5019147;28;20037;-77
2021/06/07 08:08:35;;;;;;;7.82;5.82;;;;;;;19.55;62.26;97800.88;5018357;28;20044;-78
2021/06/07 08:11:02;;;;;;;7.22;6.18;;;;;;;19.48;62.21;97790.66;5039000;28;20048;-78
2021/06/07 08:13:30;;;;;;;6.60;5.47;;;;;;;19.28;62.70;97795.19;5012532;28;20032;-78
2021/06/07 08:15:56;;;;;;;5.70;4.80;;;;;;;19.51;62.29;97787.44;5030094;28;20406;-79
2021/06/07 08:18:21;;;;;;;6.47;5.82;;;;;;;19.50;62.21;97782.44;5030069;28;20033;-78
2021/06/07 08:20:47;;;;;;;6.10;5.10;;;;;;;19.42;62.33;97791.81;5005365;28;20094;-79
2021/06/07 08:23:13;;;;;;;6.28;5.25;;;;;;;19.52;62.20;97790.88;5016365;28;20045;-78
2021/06/07 08:25:38;;;;;;;6.47;5.38;;;;;;;19.67;62.25;97795.91;5024535;28;20440;-78
2021/06/07 08:28:05;;;;;;;6.53;5.10;;;;;;;19.53;62.26;97781.88;5021009;28;20033;-79
2021/06/07 08:30:32;;;;;;;4.55;4.15;;;;;;;19.72;61.68;97787.91;5019900;28;20029;-77
2021/06/07 08:32:58;;;;;;;5.20;4.68;;;;;;;19.77;61.87;97792.38;5016727;28;20065;-78
2021/06/07 08:35:23;;;;;;;5.45;4.53;;;;;;;19.90;60.95;97796.91;5015720;28;20484;-79
2021/06/07 08:37:49;;;;;;;4.75;4.30;;;;;;;19.78;60.98;97796.59;5018290;28;20025;-78
2021/06/07 08:40:15;;;;;;;5.93;4.88;;;;;;;19.70;61.51;97795.34;5010045;28;20057;-77
2021/06/07 08:42:44;;;;;;;4.57;4.18;;;;;;;19.77;60.99;97798.44;5028537;28;20032;-77
2021/06/07 08:45:12;;;;;;;6.18;4.40;;;;;;;19.76;60.98;97791.59;5036438;28;20468;-77
2021/06/07 08:47:42;;;;;;;5.40;4.63;;;;;;;19.67;61.30;97793.28;5027054;28;20375;-77
2021/06/07 08:50:08;;;;;;;4.85;4.35;;;;;;;19.69;61.99;97801.72;5016278;28;20089;-77
2021/06/07 08:52:34;;;;;;;4.60;4.13;;;;;;;19.26;62.07;97797.31;5050332;28;20024;-78
2021/06/07 08:55:00;;;;;;;4.57;4.07;;;;;;;19.50;62.07;97799.09;5031800;28;20059;-77
2021/06/07 08:57:25;;;;;;;4.60;4.13;;;;;;;19.49;61.86;97791.47;5026761;28;20059;-76
2021/06/07 08:59:53;;;;;;;4.45;3.85;;;;;;;19.41;61.72;97798.94;5034731;28;20041;-78
2021/06/07 09:02:31;;;;;;;6.13;4.60;;;;;;;18.78;63.42;97799.22;5028834;28;20035;-78
2021/06/07 09:04:57;;;;;;;5.10;4.60;;;;;;;19.14;62.62;97794.31;5013989;28;20036;-77
2021/06/07 09:07:23;;;;;;;5.05;4.20;;;;;;;19.35;62.43;97799.31;5033771;28;20024;-77
2021/06/07 09:10:09;;;;;;;4.70;4.20;;;;;;;19.15;62.84;97798.53;5044021;28;20032;-77
2021/06/07 09:12:34;;;;;;;5.20;4.43;;;;;;;19.44;62.16;97794.97;5031633;28;20038;-77
2021/06/07 09:15:00;;;;;;;5.60;4.80;;;;;;;19.06;63.13;97797.59;5019027;28;20123;-78
2021/06/07 09:17:27;;;;;;;5.60;4.63;;;;;;;19.12;63.36;97793.81;5048052;28;20634;-78
2021/06/07 09:20:14;;;;;;;8.07;5.05;;;;;;;19.12;63.40;97799.09;5029816;28;20037;-77
2021/06/07 09:22:51;;;;;;;9.13;5.20;;;;;;;19.16;62.93;97796.66;5035917;28;20028;-77
2021/06/07 09:25:18;;;;;;;5.18;4.68;;;;;;;19.02;63.45;97804.50;5052304;28;20032;-77
2021/06/07 09:28:06;;;;;;;5.10;4.53;;;;;;;18.92;63.65;97804.63;5036157;28;20163;-78
2021/06/07 09:31:08;;;;;;;5.95;4.82;;;;;;;19.03;63.23;97803.44;5014957;28;20033;-78
2021/06/07 09:33:40;;;;;;;6.28;5.13;;;;;;;19.00;63.54;97798.72;4971323;28;20699;-78
2021/06/07 09:36:17;;;;;;;5.15;4.63;;;;;;;19.23;63.02;97800.53;4964116;28;20074;-78
2021/06/07 09:38:57;;;;;;;5.05;4.55;;;;;;;19.13;63.21;97794.59;4967291;28;20379;-77
2021/06/07 09:41:25;;;;;;;6.95;5.05;;;;;;;19.51;62.53;97800.66;4969386;28;20100;-77
2021/06/07 09:43:56;;;;;;;5.18;4.28;;;;;;;19.32;62.90;97807.81;4946906;28;20072;-78
2021/06/07 09:46:26;;;;;;;6.53;5.00;;;;;;;19.20;63.48;97808.22;4955519;28;20105;-77
2021/06/07 09:49:07;;;;;;;5.18;4.68;;;;;;;19.18;63.22;97805.88;4969571;28;20034;-77
2021/06/07 09:51:33;;;;;;;5.00;4.22;;;;;;;19.23;63.27;97803.16;4965188;28;20042;-78
2021/06/07 09:53:59;;;;;;;4.47;4.07;;;;;;;19.54;62.65;97809.88;4947193;28;20038;-78
2021/06/07 09:56:25;;;;;;;4.70;4.07;;;;;;;19.21;63.22;97813.22;4971846;28;20105;-77
2021/06/07 09:58:51;;;;;;;5.18;4.68;;;;;;;19.37;63.22;97815.66;4945349;28;20082;-77
2021/06/07 10:01:19;;;;;;;4.90;4.50;;;;;;;19.59;62.40;97805.28;4950470;28;20042;-78
2021/06/07 10:03:53;;;;;;;5.03;4.53;;;;;;;19.20;63.58;97810.88;4984669;28;20050;-77
2021/06/07 10:06:21;;;;;;;5.20;4.35;;;;;;;19.47;62.64;97804.97;4964949;28;20389;-77
2021/06/07 10:08:57;;;;;;;5.15;4.65;;;;;;;19.73;61.78;97810.63;5031537;28;20434;-78
2021/06/07 10:11:37;;;;;;;5.05;4.55;;;;;;;19.71;62.40;97819.94;5013832;28;20330;-77
2021/06/07 10:14:18;;;;;;;4.80;4.38;;;;;;;19.53;62.57;97819.63;5024432;28;20029;-77
2021/06/07 10:17:00;;;;;;;4.88;4.30;;;;;;;19.73;61.69;97815.91;5010562;28;20032;-77
2021/06/07 10:19:35;;;;;;;5.22;4.55;;;;;;;19.76;61.88;97810.09;5049156;28;20471;-77
2021/06/07 10:22:02;;;;;;;;;;;;;;;19.19;62.89;97815.38;5027243;28;20474;-77
2021/06/07 10:24:27;;;;;;;4.82;4.10;;;;;;;19.62;62.31;97815.28;5017007;28;19948;-77
2021/06/07 10:26:53;;;;;;;4.50;4.10;;;;;;;19.42;63.05;97818.22;5010080;28;20060;-78
2021/06/07 10:29:19;;;;;;;4.68;3.42;;;;;;;19.32;63.58;97813.09;5013167;28;20028;-78
2021/06/07 10:31:45;;;;;;;3.50;3.20;;;;;;;19.65;62.89;97814.72;5050528;28;20644;-78
2021/06/07 10:34:11;;;;;;;4.35;3.95;;;;;;;19.50;63.14;97822.88;5050636;28;20135;-77
2021/06/07 10:36:41;;;;;;;3.92;3.53;;;;;;;19.48;63.42;97813.66;5017561;28;20107;-78
2021/06/07 10:39:09;;;;;;;3.58;3.28;;;;;;;19.70;62.32;97813.06;5043185;28;20028;-77
2021/06/07 10:41:35;;;;;;;4.05;3.75;;;;;;;19.73;62.52;97820.44;5065467;28;20036;-77
2021/06/07 10:44:01;;;;;;;5.13;3.63;;;;;;;19.72;62.76;97818.84;5042214;28;20500;-77
2021/06/07 10:46:39;;;;;;;5.25;4.00;;;;;;;19.43;63.82;97817.16;5033207;28;20032;-78
2021/06/07 10:49:38;;;;;;;3.70;3.33;;;;;;;18.63;65.49;97823.94;5017453;28;20028;-78
2021/06/07 10:52:06;;;;;;;3.65;3.13;;;;;;;19.02;64.73;97826.41;5015988;28;20070;-77
2021/06/07 10:54:34;;;;;;;3.65;3.35;;;;;;;19.38;63.01;97817.22;5021849;28;20047;-77
2021/06/07 10:57:24;;;;;;;3.40;3.10;;;;;;;19.12;63.81;97820.19;5014165;28;20024;-77
2021/06/07 11:00:10;;;;;;;4.18;3.08;;;;;;;19.19;63.95;97820.66;5035044;28;20116;-77
2021/06/07 11:02:38;;;;;;;3.72;3.42;;;;;;;19.03;64.41;97816.63;5033751;28;20387;-77
2021/06/07 11:05:11;;;;;;;3.83;3.53;;;;;;;18.95;65.21;97825.94;5026474;28;20094;-77
2021/06/07 11:07:37;;;;;;;3.60;3.30;;;;;;;19.24;64.87;97812.66;5029346;28;20055;-78
2021/06/07 11:10:09;;;;;;;3.85;3.45;;;;;;;19.15;64.48;97811.72;5027071;28;20029;-78
2021/06/07 11:12:36;;;;;;;3.42;3.08;;;;;;;19.21;64.50;97809.78;5017788;28;20041;-77
2021/06/07 11:15:10;;;;;;;3.97;3.25;;;;;;;18.82;64.98;97810.78;5034687;28;20049;-78
2021/06/07 11:17:36;;;;;;;3.05;2.75;;;;;;;19.35;63.94;97813.31;5028923;28;20119;-78
2021/06/07 11:20:03;;;;;;;3.30;3.00;;;;;;;19.13;64.12;97807.81;5026405;28;20124;-77
2021/06/07 11:22:29;;;;;;;4.28;2.65;;;;;;;19.25;63.78;97814.22;5027537;28;20246;-78